Time;durP1;ratioP1;P1;durP2;ratioP2;P2;SDS_P1;SDS_P2;PMS_P1;PMS_P2;Temp;Humidity;BMP_temperature;BMP_pressure;BME280_temperature;BME280_humidity;BME280_pressure;Samples;Min_cycle;Max_cycle;Signal;HPM_P1;HPM_P2
2023/06/25 00:01:44;;;;;;;8.98;8.15;;;24.10;47.90;;;;;;5034506;28;20196;-85
2023/06/25 00:04:13;;;;;;;9.32;8.38;;;24.00;47.80;;;;;;5040342;28;20206;-84
2023/06/25 00:06:40;;;;;;;10.40;9.30;;;24.00;47.90;;;;;;5037579;28;20200;-84
2023/06/25 00:09:08;;;;;;;10.65;9.52;;;24.00;48.00;;;;;;5036564;28;20212;-84
2023/06/25 00:11:35;;;;;;;10.85;9.82;;;24.00;48.00;;;;;;5036779;28;20200;-84
2023/06/25 00:14:02;;;;;;;10.32;9.43;;;24.00;47.90;;;;;;5018882;28;20207;-84
2023/06/25 00:16:30;;;;;;;10.70;9.68;;;24.00;48.10;;;;;;5035848;28;20207;-84
2023/06/25 00:18:57;;;;;;;11.20;10.10;;;24.00;48.10;;;;;;5019099;28;20233;-84
2023/06/25 00:21:25;;;;;;;10.73;9.57;;;23.90;48.10;;;;;;5035554;28;20658;-84
2023/06/25 00:23:53;;;;;;;10.52;9.60;;;23.90;48.20;;;;;;5035187;28;20242;-84
2023/06/25 00:26:19;;;;;;;12.48;10.02;;;23.90;48.30;;;;;;5033744;28;20200;-84
2023/06/25 00:28:50;;;;;;;10.57;9.48;;;23.90;48.30;;;;;;5034255;28;20218;-84
2023/06/25 00:31:17;;;;;;;10.73;9.52;;;23.80;48.20;;;;;;5034627;28;20259;-84
2023/06/25 00:33:49;;;;;;;10.02;8.95;;;23.80;48.10;;;;;;5034380;28;20196;-84
2023/06/25 00:36:16;;;;;;;10.32;9.40;;;23.80;48.30;;;;;;5035778;28;20200;-84
2023/06/25 00:38:45;;;;;;;10.52;9.52;;;23.80;48.30;;;;;;5035496;28;20302;-84
2023/06/25 00:41:12;;;;;;;9.57;8.70;;;23.80;48.40;;;;;;5035055;28;20738;-84
2023/06/25 00:43:41;;;;;;;9.48;8.45;;;23.80;48.50;;;;;;5034795;28;20203;-84
2023/06/25 00:46:12;;;;;;;9.13;8.27;;;23.80;48.60;;;;;;5035028;28;20203;-84
2023/06/25 00:48:45;;;;;;;9.00;8.20;;;23.80;48.60;;;;;;5019677;28;20717;-84
2023/06/25 00:51:14;;;;;;;8.70;7.90;;;23.70;48.70;;;;;;5035403;28;20196;-84
2023/06/25 00:53:41;;;;;;;8.30;7.45;;;23.70;48.70;;;;;;5035215;28;20200;-84
2023/06/25 00:56:11;;;;;;;7.75;6.78;;;23.70;48.60;;;;;;5035066;28;20205;-84
2023/06/25 00:58:40;;;;;;;8.00;7.20;;;23.60;48.60;;;;;;5039271;28;20224;-84
2023/06/25 01:01:11;;;;;;;7.38;6.68;;;23.70;48.70;;;;;;5038944;28;20196;-84
2023/06/25 01:03:40;;;;;;;7.45;6.75;;;23.70;48.70;;;;;;5040273;28;20196;-84
2023/06/25 01:06:11;;;;;;;7.10;6.40;;;23.70;48.70;;;;;;5039012;28;20203;-84
2023/06/25 01:08:38;;;;;;;6.68;5.93;;;23.60;48.70;;;;;;5039036;28;20212;-84
2023/06/25 01:11:10;;;;;;;6.57;5.97;;;23.60;48.70;;;;;;5039095;28;20200;-84
2023/06/25 01:13:39;;;;;;;6.72;6.13;;;23.50;48.60;;;;;;5038327;28;20234;-84
2023/06/25 01:16:06;;;;;;;6.10;5.60;;;23.60;48.70;;;;;;5038185;28;20196;-84
2023/06/25 01:18:34;;;;;;;5.90;5.32;;;23.60;48.70;;;;;;5038641;28;20231;-84
2023/06/25 01:21:03;;;;;;;5.50;5.00;;;23.60;48.70;;;;;;5038703;28;20567;-84
2023/06/25 01:23:32;;;;;;;6.07;5.57;;;23.50;48.60;;;;;;5038932;28;20204;-84
2023/06/25 01:25:59;;;;;;;5.78;5.15;;;23.50;48.60;;;;;;5037379;28;20254;-84
2023/06/25 01:28:26;;;;;;;6.25;5.63;;;23.50;48.70;;;;;;5037370;28;20219;-84
2023/06/25 01:30:54;;;;;;;6.35;5.75;;;23.50;48.80;;;;;;5037472;28;20204;-83
2023/06/25 01:33:22;;;;;;;6.13;5.50;;;23.50;48.80;;;;;;5037967;28;20204;-84
2023/06/25 01:35:49;;;;;;;5.78;5.20;;;23.40;48.80;;;;;;5037446;28;20571;-85
2023/06/25 01:38:16;;;;;;;6.40;5.80;;;23.40;48.80;;;;;;5037222;28;20226;-84
2023/06/25 01:40:45;;;;;;;6.05;5.43;;;23.40;48.80;;;;;;5037402;28;20679;-84
2023/06/25 01:43:12;;;;;;;6.00;5.40;;;23.40;48.90;;;;;;5037070;28;20223;-84
2023/06/25 01:45:39;;;;;;;6.22;5.63;;;23.40;49.00;;;;;;5020630;28;20215;-84
2023/06/25 01:48:07;;;;;;;6.00;5.45;;;23.40;49.00;;;;;;5036833;28;20568;-84
2023/06/25 01:50:35;;;;;;;6.50;5.80;;;23.40;48.90;;;;;;5037864;28;20267;-84
2023/06/25 01:53:02;;;;;;;6.85;6.15;;;23.30;48.90;;;;;;5042149;28;20569;-85
2023/06/25 01:55:29;;;;;;;6.22;5.63;;;23.30;48.90;;;;;;5037140;28;20202;-84
2023/06/25 01:57:58;;;;;;;6.70;5.93;;;23.30;48.90;;;;;;5044932;28;20196;-84
2023/06/25 02:00:27;;;;;;;6.18;5.57;;;23.30;48.90;;;;;;5044326;28;20200;-84
2023/06/25 02:03:04;;;;;;;6.20;5.60;;;23.30;48.90;;;;;;5043518;28;20216;-84
2023/06/25 02:05:31;;;;;;;6.05;5.45;;;23.30;49.10;;;;;;5042405;28;20196;-84
2023/06/25 02:07:58;;;;;;;5.88;5.32;;;23.30;48.90;;;;;;5041538;28;20196;-84
2023/06/25 02:10:26;;;;;;;6.35;5.75;;;23.30;49.00;;;;;;5040869;28;20286;-85
2023/06/25 02:12:54;;;;;;;6.25;5.65;;;23.30;49.00;;;;;;5022007;28;20651;-84
2023/06/25 02:15:23;;;;;;;6.13;5.53;;;23.30;49.20;;;;;;5021492;28;20233;-84
2023/06/25 02:17:50;;;;;;;6.80;5.38;;;23.20;49.00;;;;;;5037485;28;20211;-84
2023/06/25 02:20:19;;;;;;;6.20;5.45;;;23.20;49.10;;;;;;5037196;28;20219;-84
2023/06/25 02:22:47;;;;;;;5.93;5.15;;;23.20;49.10;;;;;;5037214;28;20196;-84
2023/06/25 02:25:15;;;;;;;5.88;5.28;;;23.10;49.00;;;;;;5036852;28;20203;-84
2023/06/25 02:27:43;;;;;;;6.10;5.55;;;23.20;49.10;;;;;;5038556;28;20209;-84
2023/06/25 02:30:11;;;;;;;6.00;5.30;;;23.10;49.00;;;;;;5019774;28;20235;-84
2023/06/25 02:32:41;;;;;;;5.70;5.20;;;23.10;49.10;;;;;;5036699;28;20200;-84
2023/06/25 02:35:09;;;;;;;6.53;5.53;;;23.10;49.10;;;;;;5036270;28;20232;-84
2023/06/25 02:37:36;;;;;;;6.22;5.63;;;23.10;49.30;;;;;;5035996;28;20207;-84
2023/06/25 02:40:04;;;;;;;5.60;5.10;;;23.00;49.20;;;;;;5019996;28;20227;-84
2023/06/25 02:42:33;;;;;;;5.50;5.00;;;23.00;49.10;;;;;;5036129;28;20204;-83
2023/06/25 02:45:00;;;;;;;5.60;5.10;;;23.10;49.30;;;;;;5035654;28;20565;-83
2023/06/25 02:47:29;;;;;;;5.28;4.78;;;23.10;49.20;;;;;;5019805;28;20211;-84
2023/06/25 02:49:57;;;;;;;5.93;5.43;;;23.00;49.20;;;;;;5036037;28;20226;-84
2023/06/25 02:52:24;;;;;;;5.75;5.18;;;23.00;49.10;;;;;;5035437;28;20211;-84
2023/06/25 02:54:52;;;;;;;5.75;5.25;;;23.00;49.20;;;;;;5035550;28;20199;-84
2023/06/25 02:57:19;;;;;;;5.45;4.90;;;23.00;49.30;;;;;;5035550;28;20724;-86
2023/06/25 02:59:46;;;;;;;5.15;4.75;;;23.00;49.30;;;;;;5036496;28;20232;-86
2023/06/25 03:02:14;;;;;;;5.28;4.78;;;23.00;49.20;;;;;;5035827;28;20256;-86
2023/06/25 03:04:41;;;;;;;5.30;4.80;;;22.90;49.10;;;;;;5035223;28;20192;-86
2023/06/25 03:07:09;;;;;;;5.35;4.90;;;22.90;49.10;;;;;;5035458;28;20200;-84
2023/06/25 03:09:37;;;;;;;5.22;4.63;;;23.00;49.10;;;;;;5035769;28;20222;-83
2023/06/25 03:12:07;;;;;;;5.10;4.60;;;22.90;49.00;;;;;;5036985;28;20554;-84
2023/06/25 03:14:34;;;;;;;4.90;4.50;;;22.90;49.20;;;;;;5036091;28;20204;-84
2023/06/25 03:17:01;;;;;;;4.57;4.18;;;22.90;49.10;;;;;;5005891;28;20303;-84
2023/06/25 03:19:28;;;;;;;5.13;4.60;;;22.90;49.20;;;;;;5039785;28;20770;-84
2023/06/25 03:21:55;;;;;;;4.82;4.32;;;22.90;49.00;;;;;;5040972;28;20658;-84
2023/06/25 03:24:24;;;;;;;5.03;4.53;;;23.00;49.20;;;;;;5038172;28;20200;-84
2023/06/25 03:26:53;;;;;;;5.05;4.53;;;22.90;49.30;;;;;;5036020;28;20283;-83
2023/06/25 03:29:21;;;;;;;5.15;4.75;;;23.00;49.20;;;;;;5035587;28;20220;-83
2023/06/25 03:31:48;;;;;;;4.80;4.38;;;23.10;49.00;;;;;;5035419;28;20632;-84
2023/06/25 03:34:18;;;;;;;5.20;4.70;;;23.20;48.90;;;;;;5036674;28;20207;-84
2023/06/25 03:36:45;;;;;;;5.25;4.75;;;23.20;48.80;;;;;;5035627;28;20250;-84
2023/06/25 03:39:13;;;;;;;5.20;4.75;;;23.30;48.60;;;;;;5035589;28;20582;-83
2023/06/25 03:41:43;;;;;;;4.97;4.57;;;23.30;48.60;;;;;;5034930;28;20200;-83
2023/06/25 03:44:10;;;;;;;4.82;4.43;;;23.30;48.40;;;;;;5018813;28;20196;-83
2023/06/25 03:46:37;;;;;;;4.78;4.38;;;23.30;48.40;;;;;;5035429;28;20203;-83
2023/06/25 03:49:06;;;;;;;5.18;4.68;;;23.30;48.40;;;;;;5034965;28;20619;-82
2023/06/25 03:51:35;;;;;;;5.25;4.75;;;23.20;48.30;;;;;;5035663;28;20251;-82
2023/06/25 03:54:04;;;;;;;6.38;5.55;;;23.30;48.40;;;;;;5035288;28;20191;-82
2023/06/25 03:56:31;;;;;;;5.10;4.70;;;23.30;48.50;;;;;;5034293;28;20200;-82
2023/06/25 03:59:00;;;;;;;5.00;4.50;;;23.20;48.30;;;;;;5034239;28;20273;-82
2023/06/25 04:01:28;;;;;;;5.03;4.63;;;23.20;48.30;;;;;;5035075;28;20196;-82
2023/06/25 04:03:57;;;;;;;4.95;4.53;;;23.20;48.30;;;;;;5034934;28;20196;-83
2023/06/25 04:06:25;;;;;;;4.93;4.53;;;23.20;48.30;;;;;;5038672;28;20204;-82
2023/06/25 04:08:52;;;;;;;5.57;4.53;;;23.20;48.30;;;;;;5039286;28;20227;-83
2023/06/25 04:11:19;;;;;;;5.28;4.78;;;23.10;48.50;;;;;;5039678;28;20269;-83
2023/06/25 04:13:46;;;;;;;5.07;4.57;;;23.20;48.50;;;;;;5038319;28;20292;-83
2023/06/25 04:16:15;;;;;;;5.15;4.68;;;23.20;48.60;;;;;;5039493;28;20196;-82
2023/06/25 04:18:42;;;;;;;4.90;4.50;;;23.20;48.70;;;;;;5038824;28;20216;-82
2023/06/25 04:21:10;;;;;;;5.35;4.85;;;23.20;48.60;;;;;;5039160;28;20196;-82
2023/06/25 04:23:37;;;;;;;6.38;4.50;;;23.10;48.60;;;;;;5037336;28;20552;-82
2023/06/25 04:26:06;;;;;;;4.82;4.43;;;23.10;48.70;;;;;;5034551;28;20206;-82
2023/06/25 04:28:33;;;;;;;4.93;4.38;;;23.20;48.70;;;;;;5018400;28;20250;-82
2023/06/25 04:31:02;;;;;;;5.05;4.55;;;23.10;48.70;;;;;;5035080;28;20390;-82
2023/06/25 04:33:30;;;;;;;5.78;4.50;;;23.10;48.80;;;;;;5041485;28;20196;-82
2023/06/25 04:35:58;;;;;;;5.20;4.70;;;23.20;48.90;;;;;;5043338;28;20191;-82
2023/06/25 04:38:26;;;;;;;5.38;4.63;;;23.10;48.80;;;;;;5043882;28;20302;-83
2023/06/25 04:40:53;;;;;;;5.28;4.72;;;23.20;48.90;;;;;;5027769;28;20239;-83
2023/06/25 04:43:20;;;;;;;4.80;4.40;;;23.20;49.00;;;;;;5044622;28;20226;-83
2023/06/25 04:45:48;;;;;;;5.88;5.03;;;23.20;49.00;;;;;;5025921;28;20196;-83
2023/06/25 04:48:17;;;;;;;5.05;4.57;;;23.30;49.20;;;;;;5042796;28;20740;-83
2023/06/25 04:50:46;;;;;;;5.40;4.90;;;23.40;49.00;;;;;;5027062;28;20223;-83
2023/06/25 04:53:13;;;;;;;5.10;4.70;;;23.50;48.60;;;;;;5041996;28;20230;-83
2023/06/25 04:55:40;;;;;;;5.18;4.68;;;23.80;48.50;;;;;;5042949;28;20533;-83
2023/06/25 04:58:07;;;;;;;4.90;4.40;;;23.90;48.20;;;;;;5042079;28;20230;-83
2023/06/25 05:00:35;;;;;;;5.03;4.47;;;24.10;47.90;;;;;;5041022;28;20216;-83
2023/06/25 05:03:01;;;;;;;5.28;4.57;;;24.20;47.60;;;;;;5041943;28;20221;-84
2023/06/25 05:05:28;;;;;;;4.97;4.20;;;24.40;47.40;;;;;;5040899;28;20192;-83
2023/06/25 05:07:58;;;;;;;4.57;4.22;;;24.50;47.10;;;;;;5041206;28;20265;-83
2023/06/25 05:10:25;;;;;;;4.47;4.10;;;24.70;46.90;;;;;;5040699;28;20204;-83
2023/06/25 05:12:52;;;;;;;4.47;4.07;;;24.80;46.60;;;;;;5040710;28;20200;-83
2023/06/25 05:15:20;;;;;;;4.55;4.15;;;24.90;46.40;;;;;;5039671;28;20215;-83
2023/06/25 05:17:47;;;;;;;5.57;5.07;;;25.10;46.20;;;;;;5040081;28;20204;-83
2023/06/25 05:20:14;;;;;;;5.00;4.60;;;25.10;46.00;;;;;;5042188;28;20682;-82
2023/06/25 05:22:42;;;;;;;5.22;4.72;;;25.30;45.80;;;;;;5043014;28;20631;-82
2023/06/25 05:25:12;;;;;;;4.50;4.10;;;25.40;45.50;;;;;;5037491;28;20207;-83
2023/06/25 05:27:39;;;;;;;5.43;4.32;;;25.50;45.50;;;;;;5041512;28;20200;-83
2023/06/25 05:30:07;;;;;;;4.90;4.45;;;25.60;45.20;;;;;;5045944;28;20223;-84
2023/06/25 05:32:34;;;;;;;5.10;4.60;;;25.70;45.10;;;;;;5047524;28;20204;-83
2023/06/25 05:35:01;;;;;;;5.00;4.50;;;25.80;45.00;;;;;;5046623;28;20242;-84
2023/06/25 05:37:28;;;;;;;4.95;4.55;;;25.90;44.70;;;;;;5043129;28;20200;-83
2023/06/25 05:39:55;;;;;;;4.45;4.05;;;26.00;44.60;;;;;;5026138;28;20227;-83
2023/06/25 05:42:24;;;;;;;4.78;4.38;;;26.10;44.50;;;;;;5043294;28;20196;-83
2023/06/25 05:44:51;;;;;;;5.20;4.60;;;26.20;44.40;;;;;;5026373;28;20246;-83
2023/06/25 05:47:18;;;;;;;4.85;4.45;;;26.20;44.30;;;;;;5045141;28;20200;-83
2023/06/25 05:49:45;;;;;;;5.00;4.60;;;26.30;44.10;;;;;;5039874;28;20230;-83
2023/06/25 05:52:12;;;;;;;5.00;3.95;;;26.40;44.00;;;;;;5037225;28;20192;-83
2023/06/25 05:54:40;;;;;;;4.70;4.30;;;26.50;43.80;;;;;;5036430;28;20200;-83
2023/06/25 05:57:07;;;;;;;4.53;4.15;;;26.60;43.80;;;;;;5036363;28;20548;-83
2023/06/25 05:59:35;;;;;;;4.70;4.30;;;26.60;43.60;;;;;;5037208;28;20231;-83
2023/06/25 06:02:02;;;;;;;4.65;4.25;;;26.70;43.40;;;;;;5036245;28;20211;-83
2023/06/25 06:04:29;;;;;;;4.32;3.92;;;26.80;43.30;;;;;;5025796;28;20230;-83
2023/06/25 06:06:57;;;;;;;4.82;4.30;;;26.80;43.10;;;;;;5043470;28;20200;-83
2023/06/25 06:09:24;;;;;;;4.60;4.20;;;26.90;43.00;;;;;;5040819;28;20222;-83
2023/06/25 06:11:51;;;;;;;4.65;4.25;;;27.00;42.90;;;;;;5046611;28;20206;-83
2023/06/25 06:14:18;;;;;;;5.18;4.68;;;27.10;42.50;;;;;;5057394;28;20180;-83
2023/06/25 06:16:46;;;;;;;4.70;4.30;;;27.10;42.40;;;;;;5047072;28;20659;-83
2023/06/25 06:19:14;;;;;;;4.80;4.30;;;27.20;42.40;;;;;;5047929;28;20235;-83
2023/06/25 06:21:41;;;;;;;5.15;4.65;;;27.20;42.00;;;;;;5045578;28;20265;-83
2023/06/25 06:24:09;;;;;;;4.80;4.40;;;27.30;42.10;;;;;;5021410;28;20737;-83
2023/06/25 06:26:36;;;;;;;4.72;4.10;;;27.30;41.90;;;;;;5041999;28;20203;-83
2023/06/25 06:29:03;;;;;;;5.18;4.68;;;27.30;41.70;;;;;;5048208;28;20589;-84
2023/06/25 06:31:31;;;;;;;4.50;4.13;;;27.40;41.70;;;;;;5046761;28;20192;-83
2023/06/25 06:34:00;;;;;;;4.82;4.30;;;27.50;41.70;;;;;;5047025;28;20211;-83
2023/06/25 06:36:27;;;;;;;4.40;4.00;;;27.50;41.30;;;;;;5047657;28;20213;-83
2023/06/25 06:38:54;;;;;;;4.47;4.07;;;27.60;41.20;;;;;;5048862;28;20234;-83
2023/06/25 06:41:21;;;;;;;4.80;4.40;;;27.50;40.90;;;;;;5032598;28;20215;-83
2023/06/25 06:43:48;;;;;;;4.82;4.43;;;27.50;41.00;;;;;;5033169;28;20222;-83
2023/06/25 06:46:16;;;;;;;4.80;4.40;;;27.60;40.70;;;;;;5050339;28;20207;-83
2023/06/25 06:48:43;;;;;;;5.07;4.20;;;27.70;40.30;;;;;;5050779;28;20215;-83
2023/06/25 06:51:12;;;;;;;5.25;4.45;;;27.70;40.20;;;;;;5033349;28;20199;-83
2023/06/25 06:53:39;;;;;;;5.13;4.63;;;27.70;40.00;;;;;;5050280;28;20205;-83
2023/06/25 06:56:07;;;;;;;4.75;4.35;;;27.80;39.80;;;;;;5047827;28;20207;-82
2023/06/25 06:58:34;;;;;;;4.68;4.28;;;27.80;39.80;;;;;;5039125;28;20227;-82
2023/06/25 07:01:01;;;;;;;4.80;4.30;;;27.80;39.70;;;;;;5038001;28;20246;-82
2023/06/25 07:03:28;;;;;;;4.80;4.32;;;27.90;40.00;;;;;;5022670;28;20673;-82
2023/06/25 07:05:56;;;;;;;5.00;4.60;;;27.90;39.70;;;;;;5035852;28;20616;-82
2023/06/25 07:08:24;;;;;;;5.18;4.50;;;27.90;39.70;;;;;;5036653;28;20578;-83
2023/06/25 07:10:51;;;;;;;4.85;4.43;;;27.90;39.50;;;;;;5037607;28;20596;-83
2023/06/25 07:13:18;;;;;;;4.70;4.30;;;28.00;39.60;;;;;;5037063;28;20230;-83
2023/06/25 07:15:45;;;;;;;4.90;4.40;;;28.00;39.40;;;;;;5038759;28;20195;-83
2023/06/25 07:18:12;;;;;;;4.85;4.45;;;28.00;39.40;;;;;;5039839;28;20210;-83
2023/06/25 07:20:39;;;;;;;6.13;5.30;;;28.00;39.40;;;;;;5038434;28;20223;-83
2023/06/25 07:23:07;;;;;;;5.00;4.50;;;28.10;39.20;;;;;;5038390;28;20222;-83
2023/06/25 07:25:36;;;;;;;5.22;4.72;;;28.10;39.00;;;;;;5037630;28;20254;-83
2023/06/25 07:28:03;;;;;;;5.20;4.63;;;28.10;38.90;;;;;;5037070;28;20192;-83
2023/06/25 07:30:30;;;;;;;4.90;4.50;;;28.10;38.90;;;;;;5036880;28;20214;-83
2023/06/25 07:32:58;;;;;;;5.40;4.90;;;28.10;38.90;;;;;;5037262;28;20195;-83
2023/06/25 07:35:25;;;;;;;4.85;4.32;;;28.20;38.70;;;;;;5036712;28;20235;-83
2023/06/25 07:37:52;;;;;;;4.82;4.43;;;28.30;38.50;;;;;;5020904;28;20386;-83
2023/06/25 07:40:19;;;;;;;5.38;4.88;;;28.40;38.10;;;;;;5019137;28;20227;-83
2023/06/25 07:42:48;;;;;;;5.32;4.82;;;28.50;38.10;;;;;;5035526;28;20230;-84
2023/06/25 07:45:15;;;;;;;5.47;4.85;;;28.60;37.80;;;;;;5035477;28;20698;-84
2023/06/25 07:47:42;;;;;;;5.60;5.10;;;28.70;37.70;;;;;;5035386;28;20206;-84
2023/06/25 07:50:10;;;;;;;5.07;4.60;;;28.80;37.70;;;;;;5035495;28;20698;-84
2023/06/25 07:52:37;;;;;;;4.93;4.25;;;28.80;37.40;;;;;;5035286;28;20298;-85
2023/06/25 07:55:05;;;;;;;5.43;4.80;;;28.90;37.30;;;;;;5035131;28;20232;-84
2023/06/25 07:57:33;;;;;;;5.72;5.22;;;29.00;37.10;;;;;;5035540;28;20195;-84
2023/06/25 08:00:03;;;;;;;5.28;4.78;;;29.00;36.90;;;;;;5034561;28;20254;-85
2023/06/25 08:02:39;;;;;;;5.60;5.07;;;29.10;36.80;;;;;;5037398;28;20630;-83
2023/06/25 08:05:08;;;;;;;5.40;4.90;;;29.10;36.60;;;;;;5036135;28;20237;-84
2023/06/25 08:07:35;;;;;;;5.45;4.65;;;29.20;36.50;;;;;;5033200;28;20650;-85
2023/06/25 08:10:02;;;;;;;5.40;4.90;;;29.30;36.80;;;;;;5034729;28;20610;-84
2023/06/25 08:12:29;;;;;;;5.20;4.80;;;29.30;36.40;;;;;;5035679;28;20199;-84
2023/06/25 08:14:57;;;;;;;5.97;5.38;;;29.30;36.40;;;;;;5034602;28;20245;-82
2023/06/25 08:17:25;;;;;;;5.88;5.18;;;29.40;35.50;;;;;;5034486;28;20195;-83
2023/06/25 08:19:53;;;;;;;6.20;5.60;;;29.40;35.40;;;;;;5035088;28;20314;-82
2023/06/25 08:22:20;;;;;;;7.03;6.32;;;29.30;35.20;;;;;;5037344;28;20253;-82
2023/06/25 08:24:47;;;;;;;6.38;5.78;;;29.30;34.40;;;;;;5037324;28;20200;-82
2023/06/25 08:27:14;;;;;;;5.97;5.47;;;29.30;35.10;;;;;;5037561;28;20333;-82
2023/06/25 08:29:42;;;;;;;6.55;5.95;;;29.30;35.30;;;;;;5037066;28;20225;-82
2023/06/25 08:32:10;;;;;;;6.68;6.05;;;29.30;35.30;;;;;;5004837;28;20192;-82
2023/06/25 08:34:39;;;;;;;6.45;5.93;;;29.30;35.90;;;;;;5037512;28;20650;-83
2023/06/25 08:37:06;;;;;;;6.60;5.93;;;29.30;35.90;;;;;;5036739;28;20199;-83
2023/06/25 08:39:33;;;;;;;7.15;6.45;;;29.30;35.40;;;;;;5036079;28;20446;-83
2023/06/25 08:42:00;;;;;;;16.95;9.45;;;29.30;35.70;;;;;;5037203;28;20638;-83
2023/06/25 08:44:27;;;;;;;25.25;14.77;;;29.30;35.70;;;;;;5037121;28;20206;-83
2023/06/25 08:46:55;;;;;;;34.08;18.63;;;29.30;36.10;;;;;;5036964;28;20203;-83
2023/06/25 08:49:22;;;;;;;36.05;19.75;;;29.30;36.00;;;;;;5036858;28;20605;-83
2023/06/25 08:51:53;;;;;;;40.15;20.45;;;29.50;35.80;;;;;;5036937;28;20654;-83
2023/06/25 08:54:19;;;;;;;35.05;18.98;;;29.50;35.70;;;;;;5036807;28;20203;-83
2023/06/25 08:56:47;;;;;;;14.52;10.65;;;29.50;36.00;;;;;;5037781;28;20199;-83
2023/06/25 08:59:14;;;;;;;13.73;9.40;;;29.50;33.50;;;;;;5036674;28;20226;-83
2023/06/25 09:01:41;;;;;;;17.17;11.30;;;29.50;32.90;;;;;;5036498;28;20226;-83
2023/06/25 09:04:08;;;;;;;19.80;11.07;;;29.50;34.00;;;;;;5037490;28;20639;-83
2023/06/25 09:06:39;;;;;;;18.58;10.82;;;29.50;34.00;;;;;;5036864;28;20562;-83
2023/06/25 09:09:09;;;;;;;17.15;10.20;;;29.60;34.00;;;;;;5035912;28;20218;-83
2023/06/25 09:11:39;;;;;;;14.30;9.23;;;29.70;33.50;;;;;;5035290;28;20188;-83
2023/06/25 09:14:06;;;;;;;9.05;7.43;;;29.70;33.30;;;;;;5034685;28;20654;-83
2023/06/25 09:16:34;;;;;;;8.57;7.68;;;29.70;32.60;;;;;;5018537;28;20199;-83
2023/06/25 09:19:01;;;;;;;11.82;7.53;;;29.70;33.00;;;;;;5037828;28;20226;-83
2023/06/25 09:21:36;;;;;;;9.15;7.32;;;29.70;32.80;;;;;;5022389;28;20216;-83
2023/06/25 09:24:14;;;;;;;10.23;7.43;;;29.70;32.70;;;;;;5041535;28;20188;-83
2023/06/25 09:26:48;;;;;;;8.48;6.72;;;29.70;32.90;;;;;;5040995;28;20206;-83
2023/06/25 09:29:16;;;;;;;9.98;6.72;;;29.60;31.80;;;;;;5040972;28;20654;-83
2023/06/25 09:31:43;;;;;;;7.30;6.60;;;29.60;32.60;;;;;;5040642;28;20196;-83
2023/06/25 09:34:11;;;;;;;8.00;7.18;;;29.60;32.40;;;;;;5041178;28;20460;-82
2023/06/25 09:36:38;;;;;;;9.25;6.50;;;29.50;32.80;;;;;;5039839;28;20200;-83
2023/06/25 09:39:05;;;;;;;9.57;6.97;;;29.40;33.20;;;;;;5039894;28;20588;-83
2023/06/25 09:41:33;;;;;;;6.95;5.75;;;29.50;34.00;;;;;;5040677;28;20212;-82
2023/06/25 09:44:00;;;;;;;7.05;6.20;;;29.40;33.80;;;;;;5040600;28;20560;-83
2023/06/25 09:46:27;;;;;;;6.65;6.00;;;29.50;33.40;;;;;;5042986;28;20203;-83
2023/06/25 09:48:55;;;;;;;6.55;5.88;;;29.40;31.50;;;;;;5040279;28;20218;-83
2023/06/25 09:51:22;;;;;;;6.25;5.65;;;29.40;31.60;;;;;;5040082;28;20199;-83
2023/06/25 09:53:50;;;;;;;7.40;6.03;;;29.40;30.70;;;;;;5036855;28;20210;-83
2023/06/25 09:56:17;;;;;;;6.53;5.43;;;29.30;31.40;;;;;;5037335;28;20237;-84
2023/06/25 09:58:45;;;;;;;6.38;5.72;;;29.30;31.80;;;;;;5039343;28;20219;-83
2023/06/25 10:01:12;;;;;;;7.43;5.40;;;29.30;31.40;;;;;;5039024;28;20541;-83
2023/06/25 10:03:39;;;;;;;6.68;5.65;;;29.30;31.60;;;;;;5039099;28;20638;-83
2023/06/25 10:06:06;;;;;;;6.72;6.03;;;29.20;31.60;;;;;;5036744;28;20569;-83
2023/06/25 10:08:33;;;;;;;6.20;5.60;;;29.20;31.70;;;;;;5037889;28;20211;-83
2023/06/25 10:11:01;;;;;;;6.45;5.75;;;29.20;32.00;;;;;;5037554;28;20600;-84
2023/06/25 10:13:29;;;;;;;7.57;6.22;;;29.20;32.10;;;;;;5035955;28;20206;-83
2023/06/25 10:16:02;;;;;;;9.38;6.38;;;29.20;32.10;;;;;;5021462;28;20654;-83
2023/06/25 10:18:29;;;;;;;6.55;5.78;;;29.20;31.70;;;;;;5036893;28;20215;-83
2023/06/25 10:20:57;;;;;;;6.63;6.03;;;29.20;31.50;;;;;;5036118;28;20220;-86
2023/06/25 10:23:24;;;;;;;7.40;6.70;;;29.10;31.30;;;;;;5037018;28;20203;-86
2023/06/25 10:25:54;;;;;;;7.25;6.38;;;29.10;31.40;;;;;;5036555;28;20226;-86
2023/06/25 10:28:28;;;;;;;6.90;6.20;;;29.10;31.80;;;;;;5036333;28;20215;-84
2023/06/25 10:30:56;;;;;;;7.15;6.45;;;29.00;31.50;;;;;;5036331;28;20539;-84
2023/06/25 10:33:24;;;;;;;7.30;6.57;;;29.00;31.80;;;;;;5036939;28;20191;-83
2023/06/25 10:35:55;;;;;;;7.47;6.22;;;29.00;31.80;;;;;;5036446;28;20207;-82
2023/06/25 10:38:22;;;;;;;7.05;6.35;;;29.00;32.10;;;;;;5036288;28;20246;-82
2023/06/25 10:40:49;;;;;;;6.53;5.93;;;29.00;32.20;;;;;;5036011;28;20215;-81
2023/06/25 10:43:17;;;;;;;7.03;6.43;;;29.00;32.40;;;;;;5036138;28;20294;-81
2023/06/25 10:45:48;;;;;;;6.80;6.05;;;28.90;32.50;;;;;;5067108;22;20258;-83
2023/06/25 10:48:15;;;;;;;6.88;6.22;;;28.90;32.80;;;;;;5061536;28;20198;-83
2023/06/25 10:50:43;;;;;;;7.35;6.65;;;28.80;32.70;;;;;;5059526;28;20198;-83
2023/06/25 10:53:11;;;;;;;7.90;6.60;;;28.80;33.00;;;;;;5060791;28;20198;-83
2023/06/25 10:55:39;;;;;;;7.40;6.20;;;28.80;33.10;;;;;;5057767;28;20198;-84
2023/06/25 10:58:06;;;;;;;6.20;5.63;;;28.80;33.50;;;;;;5059981;28;20269;-81
2023/06/25 11:00:33;;;;;;;7.15;6.25;;;28.70;33.50;;;;;;5041580;28;20762;-81
2023/06/25 11:03:00;;;;;;;6.50;5.90;;;28.60;33.40;;;;;;5057671;28;20203;-82
2023/06/25 11:05:34;;;;;;;6.68;6.07;;;28.60;33.60;;;;;;5057437;28;20195;-83
2023/06/25 11:08:04;;;;;;;7.18;6.28;;;28.60;33.90;;;;;;5055458;28;20198;-83
2023/06/25 11:10:31;;;;;;;6.82;6.13;;;28.50;34.00;;;;;;5039477;28;20202;-83
2023/06/25 11:12:58;;;;;;;7.05;6.32;;;28.50;34.00;;;;;;5056192;28;20207;-82
2023/06/25 11:15:25;;;;;;;7.15;6.45;;;28.50;34.10;;;;;;5039348;28;20562;-80
2023/06/25 11:17:52;;;;;;;7.32;6.63;;;28.40;34.30;;;;;;5061046;28;20272;-82
2023/06/25 11:20:22;;;;;;;6.78;6.18;;;28.40;34.30;;;;;;5073639;28;20692;-83
2023/06/25 11:22:49;;;;;;;7.05;6.25;;;28.40;34.40;;;;;;5074546;28;20237;-84
2023/06/25 11:25:18;;;;;;;7.55;6.82;;;28.30;34.30;;;;;;5073563;28;20209;-82
2023/06/25 11:27:45;;;;;;;6.85;6.15;;;28.30;34.50;;;;;;5042534;28;20268;-83
2023/06/25 11:30:13;;;;;;;7.88;6.65;;;28.30;34.60;;;;;;5057685;28;20222;-84
2023/06/25 11:32:40;;;;;;;8.20;6.38;;;28.30;34.60;;;;;;5044071;28;20194;-83
2023/06/25 11:35:11;;;;;;;7.03;6.32;;;28.30;34.70;;;;;;5059300;28;20202;-83
2023/06/25 11:37:45;;;;;;;7.18;6.53;;;28.30;35.00;;;;;;5055060;28;20253;-83
2023/06/25 11:40:23;;;;;;;7.30;6.55;;;28.20;35.00;;;;;;5054365;28;20226;-85
2023/06/25 11:42:51;;;;;;;9.05;6.78;;;28.20;35.10;;;;;;5056698;28;20210;-82
2023/06/25 11:45:19;;;;;;;7.57;6.78;;;28.20;35.10;;;;;;5055132;28;20218;-84
2023/06/25 11:47:50;;;;;;;7.03;6.32;;;28.20;35.30;;;;;;5057092;28;20195;-82
2023/06/25 11:50:17;;;;;;;7.45;6.32;;;28.10;35.30;;;;;;5055286;28;20215;-84
2023/06/25 11:52:45;;;;;;;7.65;6.85;;;28.10;35.40;;;;;;5056234;28;20202;-82
2023/06/25 11:55:12;;;;;;;7.90;6.95;;;28.10;35.30;;;;;;5055372;28;20198;-83
2023/06/25 11:57:41;;;;;;;7.20;6.50;;;28.10;35.40;;;;;;5055662;28;20198;-83
2023/06/25 12:00:10;;;;;;;7.25;6.55;;;28.10;35.40;;;;;;5056000;28;20223;-83
2023/06/25 12:02:38;;;;;;;6.90;6.15;;;28.00;35.40;;;;;;5038659;28;20214;-83
2023/06/25 12:05:06;;;;;;;7.10;6.35;;;28.00;35.60;;;;;;5058965;28;20194;-83
2023/06/25 12:07:33;;;;;;;7.30;6.55;;;28.00;35.50;;;;;;5065214;28;20204;-80
2023/06/25 12:10:00;;;;;;;7.40;6.65;;;28.00;35.70;;;;;;5062802;28;20222;-83
2023/06/25 12:12:27;;;;;;;9.75;6.85;;;28.00;36.00;;;;;;5059597;28;20198;-83
2023/06/25 12:14:55;;;;;;;7.45;6.70;;;28.00;36.40;;;;;;5057242;28;20608;-81
2023/06/25 12:17:22;;;;;;;6.93;6.22;;;28.00;36.40;;;;;;5055877;28;20194;-82
2023/06/25 12:19:49;;;;;;;6.97;6.28;;;28.00;36.50;;;;;;5054992;28;20223;-80
2023/06/25 12:22:16;;;;;;;6.95;6.25;;;28.00;36.60;;;;;;5056661;28;20574;-82
2023/06/25 12:24:44;;;;;;;6.80;6.18;;;27.90;36.70;;;;;;5057546;28;20289;-83
2023/06/25 12:27:11;;;;;;;6.82;6.18;;;27.90;36.70;;;;;;5056458;28;20224;-81
2023/06/25 12:29:38;;;;;;;8.10;6.63;;;27.90;36.80;;;;;;5056211;28;20276;-81
2023/06/25 12:32:07;;;;;;;6.90;6.20;;;27.90;37.10;;;;;;5055554;28;20191;-81
2023/06/25 12:34:36;;;;;;;6.72;6.13;;;27.80;37.30;;;;;;5056151;28;20195;-81
2023/06/25 12:37:03;;;;;;;8.15;7.45;;;27.80;36.80;;;;;;5055364;28;20615;-81
2023/06/25 12:39:30;;;;;;;7.97;7.18;;;27.80;34.70;;;;;;5054958;28;20222;-81
2023/06/25 12:41:57;;;;;;;8.30;7.22;;;27.90;34.50;;;;;;5055413;28;20703;-81
2023/06/25 12:44:24;;;;;;;7.60;6.90;;;27.90;34.70;;;;;;5038930;28;20589;-81
2023/06/25 12:46:51;;;;;;;7.82;6.65;;;27.90;34.30;;;;;;5055265;28;20210;-80
2023/06/25 12:49:19;;;;;;;7.00;6.30;;;28.00;34.30;;;;;;5055887;28;20301;-80